createdAt,value
2022-12-03T00:00:52.469Z,98814.69
2022-12-03T00:01:55.175Z,98818.97
2022-12-03T00:02:57.992Z,98816.09
2022-12-03T00:04:00.924Z,98824.94
2022-12-03T00:05:03.858Z,98819.56
2022-12-03T00:06:06.736Z,98823.50
2022-12-03T00:07:09.571Z,98823.22
2022-12-03T00:08:13.105Z,98820.03
2022-12-03T00:09:15.877Z,98822.50
2022-12-03T00:10:18.691Z,98827.91
2022-12-03T00:11:21.380Z,98822.75
2022-12-03T00:12:24.011Z,98825.94
2022-12-03T00:13:26.677Z,98823.75
2022-12-03T00:14:29.315Z,98829.19
2022-12-03T00:15:32.156Z,98831.09
2022-12-03T00:16:34.904Z,98832.31
2022-12-03T00:17:37.604Z,98826.63
2022-12-03T00:18:40.409Z,98828.59
2022-12-03T00:19:43.273Z,98827.09
2022-12-03T00:20:46.030Z,98827.37
2022-12-03T00:21:50.067Z,98834.75
2022-12-03T00:22:53.040Z,98829.84
2022-12-03T00:23:55.774Z,98820.25
2022-12-03T00:24:58.452Z,98830.34
2022-12-03T00:26:01.253Z,98838.00
2022-12-03T00:27:04.165Z,98835.03
2022-12-03T00:28:07.740Z,98830.34
2022-12-03T00:29:11.423Z,98832.84
2022-12-03T00:30:14.671Z,98836.03
2022-12-03T00:31:17.804Z,98835.53
2022-12-03T00:32:20.807Z,98838.47
2022-12-03T00:33:23.532Z,98847.09
2022-12-03T00:34:26.261Z,98840.16
2022-12-03T00:35:28.963Z,98838.69
2022-12-03T00:36:31.684Z,98843.16
2022-12-03T00:37:35.437Z,98841.66
2022-12-03T00:38:38.132Z,98845.81
2022-12-03T00:39:41.064Z,98834.22
2022-12-03T00:40:44.172Z,98841.16
2022-12-03T00:41:47.129Z,98835.75
2022-12-03T00:42:49.699Z,98837.47
2022-12-03T00:43:52.491Z,98842.41
2022-12-03T00:44:55.773Z,98842.87
2022-12-03T00:45:58.793Z,98832.81
2022-12-03T00:47:01.769Z,98839.38
2022-12-03T00:48:04.844Z,98840.09
2022-12-03T00:49:07.761Z,98843.31
2022-12-03T00:50:10.964Z,98846.03
2022-12-03T00:51:13.770Z,98844.81
2022-12-03T00:52:16.440Z,98841.87
2022-12-03T00:53:19.225Z,98843.78
2022-12-03T00:54:24.530Z,98839.88
2022-12-03T00:55:31.200Z,98828.56
2022-12-03T00:56:34.049Z,98835.19
2022-12-03T00:57:36.852Z,98842.09
2022-12-03T00:58:39.761Z,98836.47
2022-12-03T00:59:42.593Z,98835.25
2022-12-03T01:00:45.147Z,98835.28
2022-12-03T01:01:48.028Z,98826.91
2022-12-03T01:02:53.734Z,98832.00
2022-12-03T01:03:56.668Z,98833.78
2022-12-03T01:04:59.442Z,98827.16
2022-12-03T01:06:02.143Z,98828.88
2022-12-03T01:07:05.025Z,98827.66
2022-12-03T01:08:07.963Z,98837.97
2022-12-03T01:09:10.705Z,98827.13
2022-12-03T01:10:14.752Z,98827.59
2022-12-03T01:11:36.119Z,98829.34
2022-12-03T01:12:39.066Z,98835.22
2022-12-03T01:13:41.984Z,98830.31
2022-12-03T01:14:44.653Z,98838.94
2022-12-03T01:15:47.904Z,98832.25
2022-12-03T01:16:51.192Z,98836.69
2022-12-03T01:17:54.495Z,98834.22
2022-12-03T01:18:57.369Z,98836.69
2022-12-03T01:20:01.742Z,98834.75
2022-12-03T01:21:04.571Z,98836.94
2022-12-03T01:22:07.758Z,98828.81
2022-12-03T01:23:10.459Z,98832.28
2022-12-03T01:24:13.583Z,98824.16
2022-12-03T01:25:16.416Z,98832.03
2022-12-03T01:26:19.143Z,98831.31
2022-12-03T01:27:21.964Z,98833.06
2022-12-03T01:28:25.246Z,98838.47
2022-12-03T01:29:28.294Z,98831.53
2022-12-03T01:30:50.965Z,98836.22
2022-12-03T01:32:12.583Z,98838.47
2022-12-03T01:33:15.290Z,98842.66
2022-12-03T01:34:17.931Z,98838.97
2022-12-03T01:35:21.013Z,98831.59
2022-12-03T01:36:23.923Z,98838.19
2022-12-03T01:37:26.885Z,98844.59
2022-12-03T01:38:29.466Z,98838.69
2022-12-03T01:39:32.170Z,98840.56
2022-12-03T01:40:35.003Z,98838.66
2022-12-03T01:41:39.101Z,98847.03
2022-12-03T01:42:42.827Z,98846.81
2022-12-03T01:43:46.277Z,98846.81
2022-12-03T01:44:52.219Z,98840.97
2022-12-03T01:45:55.148Z,98841.44
2022-12-03T01:47:00.562Z,98847.34
2022-12-03T01:48:03.380Z,98848.75
2022-12-03T01:49:06.860Z,98851.41
2022-12-03T01:50:19.624Z,98856.13
2022-12-03T01:51:22.957Z,98855.41
2022-12-03T01:52:30.424Z,98854.22
2022-12-03T01:53:33.355Z,98854.94
2022-12-03T01:54:42.074Z,98852.19
2022-12-03T01:55:48.608Z,98853.19
2022-12-03T01:56:53.186Z,98861.06
2022-12-03T01:57:59.322Z,98850.72
2022-12-03T01:59:02.898Z,98844.13
2022-12-03T02:00:07.648Z,98854.47
2022-12-03T02:01:19.041Z,98845.78
2022-12-03T02:02:30.331Z,98847.03
2022-12-03T02:03:33.540Z,98844.00
2022-12-03T02:04:36.251Z,98837.38
2022-12-03T02:05:39.225Z,98839.12
2022-12-03T02:06:43.551Z,98841.87
2022-12-03T02:07:46.651Z,98838.66
2022-12-03T02:08:50.052Z,98831.81
2022-12-03T02:09:53.693Z,98844.59
2022-12-03T02:10:59.394Z,98843.81
2022-12-03T02:12:02.269Z,98841.41
2022-12-03T02:13:11.117Z,98842.13
2022-12-03T02:14:19.928Z,98844.81
2022-12-03T02:15:23.150Z,98837.16
2022-12-03T02:16:26.191Z,98839.88
2022-12-03T02:17:29.223Z,98837.94
2022-12-03T02:18:32.049Z,98838.22
2022-12-03T02:19:34.921Z,98838.44
2022-12-03T02:21:30.561Z,98838.97
2022-12-03T02:23:20.022Z,98838.66
2022-12-03T02:25:07.412Z,98832.28
2022-12-03T02:26:11.252Z,98840.41
2022-12-03T02:27:14.212Z,98837.00
2022-12-03T02:28:17.371Z,98835.53
2022-12-03T02:29:20.019Z,98833.75
2022-12-03T02:30:25.093Z,98834.47
2022-12-03T02:31:27.774Z,98834.47
2022-12-03T02:32:30.644Z,98828.53
2022-12-03T02:33:33.459Z,98836.94
2022-12-03T02:34:39.333Z,98837.22
2022-12-03T02:35:42.101Z,98841.00
2022-12-03T02:36:44.849Z,98832.91
2022-12-03T02:37:53.168Z,98835.28
2022-12-03T02:38:55.904Z,98837.25
2022-12-03T02:40:03.342Z,98837.94
2022-12-03T02:41:10.818Z,98833.81
2022-12-03T02:42:32.693Z,98829.19
2022-12-03T02:43:35.745Z,98832.12
2022-12-03T02:44:38.510Z,98842.69
2022-12-03T02:45:46.867Z,98842.13
2022-12-03T02:46:49.641Z,98836.28
2022-12-03T02:47:56.507Z,98841.91
2022-12-03T02:49:00.087Z,98840.19
2022-12-03T02:50:04.211Z,98842.41
2022-12-03T02:51:09.609Z,98844.88
2022-12-03T02:52:12.558Z,98839.22
2022-12-03T02:53:21.922Z,98842.69
2022-12-03T02:54:24.745Z,98837.00
2022-12-03T02:55:35.059Z,98837.28
2022-12-03T02:56:39.871Z,98845.41
2022-12-03T02:57:44.408Z,98847.09
2022-12-03T02:58:52.737Z,98839.25
2022-12-03T02:59:56.264Z,98845.91
2022-12-03T03:01:00.176Z,98837.72
2022-12-03T03:02:03.268Z,98842.31
2022-12-03T03:03:08.212Z,98837.63
2022-12-03T03:04:11.006Z,98842.06
2022-12-03T03:05:16.697Z,98844.03
2022-12-03T03:06:20.530Z,98842.37
2022-12-03T03:07:23.391Z,98845.31
2022-12-03T03:08:27.330Z,98838.59
2022-12-03T03:09:30.093Z,98828.56
2022-12-03T03:10:34.536Z,98835.22
2022-12-03T03:11:37.189Z,98826.81
2022-12-03T03:12:40.522Z,98840.06
2022-12-03T03:13:43.723Z,98839.12
2022-12-03T03:14:46.536Z,98840.44
2022-12-03T03:15:49.655Z,98836.72
2022-12-03T03:16:56.443Z,98834.31
2022-12-03T03:17:59.636Z,98841.16
2022-12-03T03:19:02.661Z,98839.94
2022-12-03T03:20:08.132Z,98847.34
2022-12-03T03:21:10.814Z,98844.41
2022-12-03T03:22:13.512Z,98847.06
2022-12-03T03:23:19.403Z,98841.16
2022-12-03T03:24:23.511Z,98841.66
2022-12-03T03:25:26.133Z,98845.56
2022-12-03T03:26:28.965Z,98848.28
2022-12-03T03:27:32.005Z,98834.06
2022-12-03T03:28:40.690Z,98839.50
2022-12-03T03:29:43.396Z,98847.88
2022-12-03T03:30:46.956Z,98841.84
2022-12-03T03:31:50.013Z,98840.59
2022-12-03T03:32:52.842Z,98844.59
2022-12-03T03:33:55.606Z,98847.59
2022-12-03T03:34:58.277Z,98836.72
2022-12-03T03:36:01.683Z,98837.41
2022-12-03T03:37:04.932Z,98840.63
2022-12-03T03:38:09.050Z,98836.41
2022-12-03T03:39:12.037Z,98834.97
2022-12-03T03:40:15.235Z,98839.72
2022-12-03T03:41:19.433Z,98836.00
2022-12-03T03:42:22.878Z,98838.91
2022-12-03T03:43:25.875Z,98836.00
2022-12-03T03:44:28.791Z,98835.25
2022-12-03T03:45:31.642Z,98836.94
2022-12-03T03:46:36.026Z,98836.94
2022-12-03T03:47:39.358Z,98835.03
2022-12-03T03:48:43.845Z,98842.66
2022-12-03T03:49:48.293Z,98833.78
2022-12-03T03:50:52.182Z,98845.13
2022-12-03T03:51:55.798Z,98835.75
2022-12-03T03:53:01.897Z,98837.72
2022-12-03T03:54:06.832Z,98834.06
2022-12-03T03:55:11.902Z,98832.50
2022-12-03T03:56:16.787Z,98846.53
2022-12-03T03:57:19.699Z,98841.38
2022-12-03T03:58:22.776Z,98844.13
2022-12-03T03:59:25.379Z,98845.34
2022-12-03T04:00:28.290Z,98841.91
2022-12-03T04:01:31.684Z,98840.97
2022-12-03T04:02:35.294Z,98842.84
2022-12-03T04:03:37.976Z,98847.00
2022-12-03T04:04:40.717Z,98842.34
2022-12-03T04:05:43.450Z,98841.41
2022-12-03T04:06:46.780Z,98837.47
2022-12-03T04:07:49.916Z,98847.06
2022-12-03T04:08:52.797Z,98837.97
2022-12-03T04:09:55.529Z,98840.97
2022-12-03T04:11:17.054Z,98840.69
2022-12-03T04:12:42.689Z,98842.66
2022-12-03T04:13:45.410Z,98841.34
2022-12-03T04:14:48.131Z,98839.62
2022-12-03T04:15:51.100Z,98848.00
2022-12-03T04:16:53.747Z,98845.09
2022-12-03T04:18:15.330Z,98843.13
2022-12-03T04:19:18.272Z,98844.16
2022-12-03T04:20:21.343Z,98839.25
2022-12-03T04:21:43.166Z,98841.44
2022-12-03T04:22:45.886Z,98839.25
2022-12-03T04:23:48.494Z,98841.69
2022-12-03T04:24:51.539Z,98841.44
2022-12-03T04:26:12.783Z,98844.41
2022-12-03T04:27:33.978Z,98840.38
2022-12-03T04:28:52.092Z,98839.69
2022-12-03T04:29:54.720Z,98830.56
2022-12-03T04:30:57.481Z,98847.78
2022-12-03T04:32:18.650Z,98834.63
2022-12-03T04:33:40.124Z,98842.00
2022-12-03T04:35:01.427Z,98836.53
2022-12-03T04:36:04.896Z,98834.97
2022-12-03T04:37:08.543Z,98836.50
2022-12-03T04:38:14.123Z,98836.97
2022-12-03T04:39:16.982Z,98837.16
2022-12-03T04:40:38.398Z,98842.09
2022-12-03T04:41:41.155Z,98831.78
2022-12-03T04:42:43.904Z,98828.59
2022-12-03T04:44:06.871Z,98830.53
2022-12-03T04:45:09.937Z,98844.84
2022-12-03T04:46:12.710Z,98836.47
2022-12-03T04:47:20.312Z,98844.13
2022-12-03T04:48:22.993Z,98844.88
2022-12-03T04:49:26.336Z,98847.34
2022-12-03T04:50:29.004Z,98849.56
2022-12-03T04:51:31.768Z,98847.31
2022-12-03T04:52:34.413Z,98846.81
2022-12-03T04:53:39.678Z,98843.66
2022-12-03T04:54:46.514Z,98845.56
2022-12-03T04:55:49.203Z,98836.47
2022-12-03T04:56:51.875Z,98847.53
2022-12-03T04:57:54.511Z,98850.50
2022-12-03T04:58:57.167Z,98854.09
2022-12-03T04:59:59.830Z,98840.00
2022-12-03T05:01:02.637Z,98850.59
2022-12-03T05:02:06.522Z,98840.56
2022-12-03T05:03:09.336Z,98845.06
2022-12-03T05:04:13.569Z,98849.03
2022-12-03T05:05:16.833Z,98844.38
2022-12-03T05:06:19.412Z,98851.22
2022-12-03T05:07:22.126Z,98849.91
2022-12-03T05:08:24.765Z,98853.25
2022-12-03T05:09:27.333Z,98853.59
2022-12-03T05:10:30.570Z,98849.19
2022-12-03T05:11:33.293Z,98852.94
2022-12-03T05:12:36.410Z,98857.91
2022-12-03T05:13:39.067Z,98848.75
2022-12-03T05:14:41.731Z,98858.75
2022-12-03T05:15:44.371Z,98853.59
2022-12-03T05:16:46.994Z,98855.13
2022-12-03T05:17:49.721Z,98849.34
2022-12-03T05:18:52.522Z,98852.88
2022-12-03T05:20:14.388Z,98854.88
2022-12-03T05:21:17.136Z,98843.75
2022-12-03T05:22:19.879Z,98852.88
2022-12-03T05:23:22.704Z,98850.94
2022-12-03T05:24:25.363Z,98859.09
2022-12-03T05:25:28.553Z,98856.16
2022-12-03T05:26:31.464Z,98862.97
2022-12-03T05:27:34.955Z,98858.78
2022-12-03T05:28:37.776Z,98861.75
2022-12-03T05:29:40.412Z,98859.31
2022-12-03T05:30:43.358Z,98861.50
2022-12-03T05:31:46.096Z,98855.63
2022-12-03T05:32:48.894Z,98856.63
2022-12-03T05:33:51.633Z,98856.66
2022-12-03T05:34:54.368Z,98855.19
2022-12-03T05:35:57.602Z,98854.47
2022-12-03T05:37:00.312Z,98850.50
2022-12-03T05:38:03.155Z,98860.31
2022-12-03T05:39:06.021Z,98861.97
2022-12-03T05:40:10.042Z,98857.09
2022-12-03T05:41:33.041Z,98855.63
2022-12-03T05:42:54.250Z,98865.25
2022-12-03T05:43:57.023Z,98864.25
2022-12-03T05:44:59.768Z,98869.88
2022-12-03T05:46:02.574Z,98864.94
2022-12-03T05:47:05.442Z,98864.66
2022-12-03T05:48:13.829Z,98864.44
2022-12-03T05:49:16.885Z,98859.31
2022-12-03T05:50:20.811Z,98866.94
2022-12-03T05:51:23.521Z,98870.69
2022-12-03T05:52:26.142Z,98873.37
2022-12-03T05:53:28.792Z,98869.19
2022-12-03T05:54:31.427Z,98876.56
2022-12-03T05:55:34.165Z,98878.53
2022-12-03T05:56:37.132Z,98875.84
2022-12-03T05:57:40.177Z,98886.16
2022-12-03T05:58:42.873Z,98886.13
2022-12-03T05:59:45.571Z,98884.16
2022-12-03T06:00:48.309Z,98886.38
2022-12-03T06:01:51.044Z,98882.66
2022-12-03T06:02:54.322Z,98893.50
2022-12-03T06:03:57.103Z,98891.53
2022-12-03T06:05:00.249Z,98891.78
2022-12-03T06:06:02.890Z,98895.91
2022-12-03T06:07:09.735Z,98896.63
2022-12-03T06:08:16.350Z,98897.66
2022-12-03T06:09:19.140Z,98901.88
2022-12-03T06:10:24.661Z,98891.25
2022-12-03T06:11:27.407Z,98891.50
2022-12-03T06:12:30.181Z,98893.19
2022-12-03T06:13:32.857Z,98890.50
2022-12-03T06:14:35.929Z,98883.06
2022-12-03T06:15:43.529Z,98885.28
2022-12-03T06:16:46.815Z,98883.38
2022-12-03T06:17:49.850Z,98877.69
2022-12-03T06:18:52.487Z,98874.47
2022-12-03T06:19:55.293Z,98875.69
2022-12-03T06:20:58.350Z,98877.41
2022-12-03T06:22:00.907Z,98880.13
2022-12-03T06:23:03.498Z,98883.06
2022-12-03T06:24:06.448Z,98879.41
2022-12-03T06:25:09.984Z,98881.13
2022-12-03T06:26:13.798Z,98883.53
2022-12-03T06:27:17.052Z,98879.31
2022-12-03T06:28:19.838Z,98880.78
2022-12-03T06:29:22.607Z,98875.09
2022-12-03T06:30:25.369Z,98876.88
2022-12-03T06:31:28.786Z,98874.34
2022-12-03T06:32:31.604Z,98875.91
2022-12-03T06:33:34.306Z,98873.47
2022-12-03T06:34:37.208Z,98882.31
2022-12-03T06:35:39.836Z,98880.59
2022-12-03T06:36:42.657Z,98884.38
2022-12-03T06:37:45.752Z,98881.19
2022-12-03T06:38:48.404Z,98879.25
2022-12-03T06:39:51.069Z,98891.84
2022-12-03T06:40:53.842Z,98881.03
2022-12-03T06:41:56.508Z,98890.41
2022-12-03T06:42:59.219Z,98886.47
2022-12-03T06:44:01.839Z,98884.41
2022-12-03T06:45:05.170Z,98886.69
2022-12-03T06:46:08.108Z,98886.72
2022-12-03T06:47:10.913Z,98877.09
2022-12-03T06:48:13.588Z,98883.50
2022-12-03T06:49:17.842Z,98881.28
2022-12-03T06:50:20.568Z,98886.25
2022-12-03T06:51:23.233Z,98887.87
2022-12-03T06:52:25.876Z,98896.22
2022-12-03T06:53:28.570Z,98882.97
2022-12-03T06:54:31.494Z,98886.69
2022-12-03T06:55:34.129Z,98894.50
2022-12-03T06:56:43.398Z,98888.13
2022-12-03T06:57:48.854Z,98887.13
2022-12-03T06:58:51.616Z,98886.38
2022-12-03T06:59:54.854Z,98885.38
2022-12-03T07:00:57.674Z,98883.84
2022-12-03T07:02:01.342Z,98888.50
2022-12-03T07:03:04.877Z,98886.56
2022-12-03T07:04:07.788Z,98890.78
2022-12-03T07:05:11.070Z,98891.28
2022-12-03T07:06:14.251Z,98894.94
2022-12-03T07:07:17.099Z,98887.78
2022-12-03T07:08:20.153Z,98892.47
2022-12-03T07:09:23.220Z,98896.63
2022-12-03T07:10:26.069Z,98893.13
2022-12-03T07:11:31.648Z,98896.22
2022-12-03T07:12:34.250Z,98899.25
2022-12-03T07:13:37.026Z,98891.09
2022-12-03T07:14:39.681Z,98893.88
2022-12-03T07:15:42.679Z,98897.31
2022-12-03T07:16:45.428Z,98892.28
2022-12-03T07:17:48.228Z,98887.63
2022-12-03T07:18:50.909Z,98902.94
2022-12-03T07:19:53.984Z,98893.34
2022-12-03T07:20:56.562Z,98897.25
2022-12-03T07:21:59.262Z,98892.28
2022-12-03T07:23:01.938Z,98894.56
2022-12-03T07:24:05.733Z,98886.63
2022-12-03T07:25:09.300Z,98893.09
2022-12-03T07:26:11.927Z,98895.75
2022-12-03T07:27:14.492Z,98896.28
2022-12-03T07:28:17.132Z,98894.56
2022-12-03T07:29:19.867Z,98897.47
2022-12-03T07:30:23.749Z,98898.78
2022-12-03T07:31:26.860Z,98899.50
2022-12-03T07:32:29.507Z,98897.53
2022-12-03T07:33:32.600Z,98910.34
2022-12-03T07:34:35.440Z,98905.16
2022-12-03T07:35:38.123Z,98902.03
2022-12-03T07:36:40.793Z,98901.00
2022-12-03T07:37:43.728Z,98893.81
2022-12-03T07:38:46.426Z,98892.62
2022-12-03T07:39:54.771Z,98900.75
2022-12-03T07:40:57.550Z,98909.06
2022-12-03T07:42:00.297Z,98902.13
2022-12-03T07:43:03.032Z,98907.12
2022-12-03T07:44:10.876Z,98898.22
2022-12-03T07:45:16.825Z,98895.53
2022-12-03T07:46:19.547Z,98903.97
2022-12-03T07:47:22.311Z,98894.31
2022-12-03T07:48:25.823Z,98883.06
2022-12-03T07:49:28.478Z,98891.47
2022-12-03T07:50:31.142Z,98891.38
2022-12-03T07:51:33.984Z,98887.00
2022-12-03T07:52:36.828Z,98889.94
2022-12-03T07:53:39.754Z,98891.62
2022-12-03T07:54:42.465Z,98892.56
2022-12-03T07:55:45.110Z,98897.00
2022-12-03T07:56:51.146Z,98892.53
2022-12-03T07:57:53.811Z,98894.00
2022-12-03T07:58:56.667Z,98892.28
2022-12-03T07:59:59.388Z,98889.19
2022-12-03T08:01:02.225Z,98883.72
2022-12-03T08:02:05.356Z,98884.66
2022-12-03T08:03:08.056Z,98889.31
2022-12-03T08:04:13.346Z,98895.69
2022-12-03T08:05:16.091Z,98885.63
2022-12-03T08:06:18.710Z,98893.25
2022-12-03T08:07:21.428Z,98891.53
2022-12-03T08:08:24.417Z,98897.69
2022-12-03T08:09:27.152Z,98897.53
2022-12-03T08:10:29.973Z,98901.75
2022-12-03T08:11:33.798Z,98905.16
2022-12-03T08:12:42.111Z,98901.38
2022-12-03T08:13:44.750Z,98895.03
2022-12-03T08:14:47.506Z,98893.56
2022-12-03T08:15:50.181Z,98895.37
2022-12-03T08:16:53.070Z,98891.62
2022-12-03T08:17:58.970Z,98899.00
2022-12-03T08:19:02.719Z,98896.31
2022-12-03T08:20:17.963Z,98899.28
2022-12-03T08:21:22.006Z,98900.19
2022-12-03T08:22:24.716Z,98899.69
2022-12-03T08:23:28.073Z,98900.47
2022-12-03T08:24:30.770Z,98899.16
2022-12-03T08:25:33.915Z,98905.25
2022-12-03T08:26:36.646Z,98905.25
2022-12-03T08:27:39.441Z,98912.34
2022-12-03T08:28:42.072Z,98914.69
2022-12-03T08:29:45.296Z,98904.28
2022-12-03T08:31:18.724Z,98906.72
2022-12-03T08:32:21.411Z,98900.28
2022-12-03T08:33:36.076Z,98901.41
2022-12-03T08:34:43.838Z,98899.16
2022-12-03T08:35:51.185Z,98893.75
2022-12-03T08:37:06.047Z,98903.59
2022-12-03T08:38:12.988Z,98896.44
2022-12-03T08:39:34.015Z,98893.22
2022-12-03T08:40:42.092Z,98899.72
2022-12-03T08:42:03.473Z,98895.31
2022-12-03T08:43:27.381Z,98895.56
2022-12-03T08:44:41.053Z,98889.72
2022-12-03T08:45:45.516Z,98903.28
2022-12-03T08:46:54.474Z,98900.53
2022-12-03T08:48:20.995Z,98903.53
2022-12-03T08:49:23.669Z,98912.09
2022-12-03T08:50:33.040Z,98911.37
2022-12-03T08:51:35.763Z,98919.84
2022-12-03T08:52:38.460Z,98924.72
2022-12-03T08:53:49.850Z,98922.72
2022-12-03T08:54:55.706Z,98923.94
2022-12-03T08:56:01.851Z,98936.25
2022-12-03T08:57:41.483Z,98930.09
2022-12-03T08:58:46.618Z,98929.06
2022-12-03T08:59:49.579Z,98930.56
2022-12-03T09:00:56.708Z,98931.50
2022-12-03T09:02:00.038Z,98927.00
2022-12-03T09:03:02.875Z,98930.66
2022-12-03T09:04:36.422Z,98931.12
2022-12-03T09:05:39.157Z,98924.94
2022-12-03T09:06:41.955Z,98922.91
2022-12-03T09:07:44.700Z,98924.44
2022-12-03T09:08:47.495Z,98926.56
2022-12-03T09:09:50.787Z,98922.41
2022-12-03T09:10:53.766Z,98912.53
2022-12-03T09:11:56.827Z,98918.03
2022-12-03T09:12:59.563Z,98907.12
2022-12-03T09:14:02.257Z,98914.81
2022-12-03T09:15:05.460Z,98910.34
2022-12-03T09:16:08.358Z,98905.84
2022-12-03T09:17:11.148Z,98903.25
2022-12-03T09:18:16.901Z,98905.97
2022-12-03T09:19:19.763Z,98907.75
2022-12-03T09:20:22.566Z,98899.88
2022-12-03T09:21:25.357Z,98903.19
2022-12-03T09:22:27.966Z,98906.94
2022-12-03T09:23:30.863Z,98905.75
2022-12-03T09:24:33.568Z,98903.78
2022-12-03T09:25:36.160Z,98899.38
2022-12-03T09:26:38.949Z,98895.78
2022-12-03T09:27:41.654Z,98905.91
2022-12-03T09:28:44.522Z,98905.13
2022-12-03T09:29:47.065Z,98898.66
2022-12-03T09:30:49.791Z,98899.47
2022-12-03T09:31:53.089Z,98901.88
2022-12-03T09:32:55.811Z,98900.94
2022-12-03T09:33:58.725Z,98905.50
2022-12-03T09:35:01.713Z,98901.53
2022-12-03T09:36:04.712Z,98902.63
2022-12-03T09:37:07.656Z,98904.59
2022-12-03T09:38:11.041Z,98907.69
2022-12-03T09:39:14.022Z,98900.00
2022-12-03T09:40:16.821Z,98896.56
2022-12-03T09:41:19.692Z,98898.75
2022-12-03T09:42:22.922Z,98896.56
2022-12-03T09:43:49.351Z,98898.53
2022-12-03T09:44:51.839Z,98897.03
2022-12-03T09:45:54.920Z,98887.81
2022-12-03T09:47:00.195Z,98891.03
2022-12-03T09:48:04.353Z,98894.91
2022-12-03T09:49:15.486Z,98896.97
2022-12-03T09:50:26.601Z,98904.16
2022-12-03T09:51:33.137Z,98902.53
2022-12-03T09:52:35.982Z,98905.78
2022-12-03T09:53:41.343Z,98900.94
2022-12-03T09:54:47.530Z,98904.59
2022-12-03T09:55:50.420Z,98903.28
2022-12-03T09:56:55.776Z,98902.53
2022-12-03T09:57:58.415Z,98896.56
2022-12-03T09:59:01.096Z,98892.94
2022-12-03T10:00:15.548Z,98886.47
2022-12-03T10:01:18.932Z,98884.50
2022-12-03T10:02:27.538Z,98876.78
2022-12-03T10:03:32.187Z,98889.31
2022-12-03T10:04:34.804Z,98892.50
2022-12-03T10:05:37.538Z,98884.41
2022-12-03T10:06:45.552Z,98888.50
2022-12-03T10:07:50.224Z,98875.38
2022-12-03T10:08:55.910Z,98878.72
2022-12-03T10:09:58.574Z,98875.94
2022-12-03T10:11:01.380Z,98877.06
2022-12-03T10:12:04.728Z,98880.22
2022-12-03T10:13:11.726Z,98883.28
2022-12-03T10:14:17.350Z,98884.22
2022-12-03T10:15:23.046Z,98889.81
2022-12-03T10:16:26.454Z,98881.31
2022-12-03T10:17:31.950Z,98877.75
2022-12-03T10:18:42.176Z,98868.03
2022-12-03T10:19:45.278Z,98872.97
2022-12-03T10:20:48.389Z,98876.22
2022-12-03T10:21:51.223Z,98869.62
2022-12-03T10:22:53.853Z,98872.75
2022-12-03T10:24:18.177Z,98864.38
2022-12-03T10:25:23.145Z,98860.13
2022-12-03T10:26:40.870Z,98859.59
2022-12-03T10:27:54.807Z,98862.12
2022-12-03T10:28:57.511Z,98853.22
2022-12-03T10:30:02.481Z,98857.59
2022-12-03T10:31:09.214Z,98857.19
2022-12-03T10:32:12.930Z,98857.63
2022-12-03T10:33:18.806Z,98860.34
2022-12-03T10:34:33.512Z,98850.59
2022-12-03T10:35:43.792Z,98853.44
2022-12-03T10:36:46.616Z,98851.03
2022-12-03T10:38:02.172Z,98848.09
2022-12-03T10:39:16.239Z,98850.81
2022-12-03T10:40:25.326Z,98846.62
2022-12-03T10:41:29.051Z,98849.75
2022-12-03T10:42:33.641Z,98846.22
2022-12-03T10:43:36.217Z,98836.25
2022-12-03T10:44:39.200Z,98841.81
2022-12-03T10:45:43.064Z,98845.19
2022-12-03T10:46:47.388Z,98839.09
2022-12-03T10:48:13.576Z,98842.75
2022-12-03T10:49:19.037Z,98843.47
2022-12-03T10:50:21.640Z,98851.34
2022-12-03T10:51:24.458Z,98843.59
2022-12-03T10:52:27.295Z,98838.44
2022-12-03T10:53:32.509Z,98841.59
2022-12-03T10:54:35.772Z,98838.88
2022-12-03T10:55:41.288Z,98842.53
2022-12-03T10:56:44.533Z,98837.09
2022-12-03T10:57:48.282Z,98833.72
2022-12-03T10:58:51.469Z,98833.19
2022-12-03T10:59:55.081Z,98835.91
2022-12-03T11:00:59.264Z,98828.78
2022-12-03T11:02:05.922Z,98836.47
2022-12-03T11:03:21.997Z,98831.09
2022-12-03T11:04:37.269Z,98829.00
2022-12-03T11:05:40.054Z,98828.91
2022-12-03T11:06:42.782Z,98828.56
2022-12-03T11:07:45.918Z,98828.19
2022-12-03T11:08:57.578Z,98825.66
2022-12-03T11:10:02.908Z,98824.56
2022-12-03T11:11:16.011Z,98825.94
2022-12-03T11:12:25.457Z,98828.06
2022-12-03T11:13:29.364Z,98829.09
2022-12-03T11:14:56.931Z,98822.91
2022-12-03T11:16:06.325Z,98824.56
2022-12-03T11:17:09.366Z,98825.53
2022-12-03T11:18:11.995Z,98822.69
2022-12-03T11:19:19.054Z,98825.59
2022-12-03T11:20:24.835Z,98821.84
2022-12-03T11:21:27.592Z,98810.97
2022-12-03T11:22:54.208Z,98810.34
2022-12-03T11:23:59.965Z,98805.50
2022-12-03T11:25:27.155Z,98817.44
2022-12-03T11:26:29.723Z,98810.34
2022-12-03T11:27:32.496Z,98803.81
2022-12-03T11:28:36.671Z,98807.59
2022-12-03T11:29:45.030Z,98805.06
2022-12-03T11:30:53.893Z,98811.34
2022-12-03T11:31:56.612Z,98803.91
2022-12-03T11:33:00.849Z,98814.47
2022-12-03T11:34:18.886Z,98797.69
2022-12-03T11:35:24.029Z,98802.19
2022-12-03T11:36:47.652Z,98804.37
2022-12-03T11:37:49.673Z,98802.88
2022-12-03T11:38:55.143Z,98799.59
2022-12-03T11:40:17.746Z,98806.50
2022-12-03T11:41:23.958Z,98799.94
2022-12-03T11:42:38.799Z,98800.47
2022-12-03T11:44:06.335Z,98792.38
2022-12-03T11:45:09.004Z,98799.75
2022-12-03T11:46:11.777Z,98795.22
2022-12-03T11:47:16.495Z,98801.06
2022-12-03T11:48:20.488Z,98796.22
2022-12-03T11:49:33.625Z,98799.75
2022-12-03T11:50:41.651Z,98791.31
2022-12-03T11:51:44.886Z,98796.56
2022-12-03T11:52:53.313Z,98797.81
2022-12-03T11:53:58.937Z,98795.16
2022-12-03T11:55:16.816Z,98795.16
2022-12-03T11:56:28.945Z,98790.78
2022-12-03T11:57:37.848Z,98793.09
2022-12-03T11:58:43.641Z,98793.66
2022-12-03T12:00:06.884Z,98795.84
2022-12-03T12:01:10.048Z,98795.28
2022-12-03T12:02:21.790Z,98796.22
2022-12-03T12:03:48.973Z,98789.37
2022-12-03T12:04:52.084Z,98786.25
2022-12-03T12:06:12.362Z,98788.63
2022-12-03T12:07:33.997Z,98785.38
2022-12-03T12:09:04.131Z,98783.19
2022-12-03T12:10:07.264Z,98780.56
2022-12-03T12:11:28.992Z,98777.44
2022-12-03T12:12:45.605Z,98772.69
2022-12-03T12:14:08.176Z,98779.28
2022-12-03T12:15:47.435Z,98772.38
2022-12-03T12:16:55.523Z,98756.72
2022-12-03T12:18:36.281Z,98758.53
2022-12-03T12:19:43.951Z,98752.88
2022-12-03T12:20:46.629Z,98755.78
2022-12-03T12:21:50.131Z,98754.41
2022-12-03T12:22:56.102Z,98754.75
2022-12-03T12:24:48.486Z,98754.91
2022-12-03T12:25:54.321Z,98758.84
2022-12-03T12:27:19.267Z,98760.03
2022-12-03T12:28:22.026Z,98758.03
2022-12-03T12:29:24.988Z,98764.22
2022-12-03T12:30:27.594Z,98758.84
2022-12-03T12:31:30.455Z,98761.31
2022-12-03T12:32:40.584Z,98759.25
2022-12-03T12:33:43.291Z,98759.78
2022-12-03T12:34:51.002Z,98764.31
2022-12-03T12:35:54.053Z,98762.12
2022-12-03T12:37:00.003Z,98760.63
2022-12-03T12:38:08.845Z,98768.31
2022-12-03T12:39:16.072Z,98761.00
2022-12-03T12:40:19.607Z,98760.72
2022-12-03T12:41:22.220Z,98757.66
2022-12-03T12:42:28.112Z,98752.53
2022-12-03T12:43:32.771Z,98754.22
2022-12-03T12:44:35.668Z,98757.31
2022-12-03T12:45:44.413Z,98756.94
2022-12-03T12:46:48.606Z,98752.22
2022-12-03T12:48:20.197Z,98757.72
2022-12-03T12:49:27.088Z,98755.12
2022-12-03T12:50:31.694Z,98761.03
2022-12-03T12:51:34.467Z,98760.66
2022-12-03T12:52:50.996Z,98759.06